Time;durP1;ratioP1;P1;durP2;ratioP2;P2;SDS_P1;SDS_P2;PMS_P1;PMS_P2;Temp;Humidity;BMP_temperature;BMP_pressure;BME280_temperature;BME280_humidity;BME280_pressure;Samples;Min_cycle;Max_cycle;Signal;HPM_P1;HPM_P2
2021/11/14 00:01:09;;;;;;;66.95;41.20;;;3.00;99.90;;;;;;5010802;28;20152;-73
2021/11/14 00:03:35;;;;;;;61.90;38.83;;;3.00;99.90;;;;;;5040222;28;20033;-73
2021/11/14 00:06:03;;;;;;;59.65;38.78;;;3.10;99.90;;;;;;5030839;28;20129;-73
2021/11/14 00:08:29;;;;;;;55.70;37.20;;;3.10;99.90;;;;;;5019675;28;20136;-73
2021/11/14 00:11:00;;;;;;;58.00;37.67;;;3.20;99.90;;;;;;5027087;28;20044;-73
2021/11/14 00:13:26;;;;;;;61.13;38.78;;;3.20;99.90;;;;;;5022663;28;20038;-72
2021/11/14 00:15:52;;;;;;;67.00;40.88;;;3.20;99.90;;;;;;5018378;28;20026;-72
2021/11/14 00:18:18;;;;;;;59.40;39.13;;;3.30;99.90;;;;;;5027397;28;20109;-73
2021/11/14 00:20:45;;;;;;;65.88;39.72;;;3.30;99.90;;;;;;5027506;28;20108;-72
2021/11/14 00:23:11;;;;;;;73.43;42.95;;;3.40;99.90;;;;;;5025931;28;20029;-72
2021/11/14 00:25:37;;;;;;;79.57;45.35;;;3.30;99.90;;;;;;5026905;28;20113;-72
2021/11/14 00:28:04;;;;;;;97.70;47.47;;;3.30;99.90;;;;;;5032333;28;20124;-72
2021/11/14 00:30:30;;;;;;;103.78;48.47;;;3.30;99.90;;;;;;5026357;28;20056;-72
2021/11/14 00:32:56;;;;;;;112.95;49.35;;;3.40;99.90;;;;;;5028687;28;20037;-72
2021/11/14 00:35:23;;;;;;;118.82;51.17;;;3.40;99.90;;;;;;5029224;28;20022;-73
2021/11/14 00:37:50;;;;;;;145.30;53.15;;;3.50;99.90;;;;;;5028221;28;20041;-73
2021/11/14 00:40:20;;;;;;;131.07;53.65;;;3.50;99.90;;;;;;5028212;28;20508;-72
2021/11/14 00:42:46;;;;;;;121.00;51.92;;;3.60;99.90;;;;;;5030546;28;20536;-72
2021/11/14 00:45:12;;;;;;;180.15;55.85;;;3.60;99.90;;;;;;5031108;28;20030;-73
2021/11/14 00:47:39;;;;;;;108.28;51.67;;;3.60;99.90;;;;;;5029293;28;20453;-73
2021/11/14 00:50:10;;;;;;;97.47;49.47;;;3.60;99.90;;;;;;5029114;28;22662;-72
2021/11/14 00:52:37;;;;;;;113.50;52.60;;;3.60;99.90;;;;;;5029828;28;20029;-73
2021/11/14 00:55:04;;;;;;;132.07;51.53;;;3.70;99.90;;;;;;5032251;28;20030;-72
2021/11/14 00:57:30;;;;;;;135.45;50.83;;;3.70;99.90;;;;;;5030467;28;20056;-73
2021/11/14 00:59:56;;;;;;;137.45;51.60;;;3.80;99.90;;;;;;5029102;28;20041;-73
2021/11/14 01:02:22;;;;;;;133.88;51.63;;;3.80;99.90;;;;;;5029023;28;20045;-72
2021/11/14 01:04:47;;;;;;;137.20;50.40;;;3.80;99.90;;;;;;5029976;28;20026;-73
2021/11/14 01:07:13;;;;;;;147.60;50.92;;;3.90;99.90;;;;;;5028619;28;20037;-72
2021/11/14 01:09:40;;;;;;;158.93;55.05;;;3.90;99.90;;;;;;5031034;28;20029;-73
2021/11/14 01:12:09;;;;;;;118.53;53.50;;;3.90;99.90;;;;;;5029125;28;20390;-73
2021/11/14 01:14:36;;;;;;;155.55;51.90;;;4.00;99.90;;;;;;5028999;28;20534;-73
2021/11/14 01:17:03;;;;;;;159.60;52.75;;;3.90;99.90;;;;;;5029118;28;20021;-72
2021/11/14 01:19:29;;;;;;;161.05;53.50;;;4.00;99.90;;;;;;5028068;28;20025;-72
2021/11/14 01:21:54;;;;;;;178.90;52.60;;;4.00;99.90;;;;;;5028954;28;20487;-72
2021/11/14 01:24:20;;;;;;;193.30;54.03;;;4.00;99.90;;;;;;5029602;28;20029;-72
2021/11/14 01:26:46;;;;;;;185.65;56.38;;;4.00;99.90;;;;;;5027255;28;20036;-72
2021/11/14 01:29:11;;;;;;;160.00;54.53;;;4.10;99.90;;;;;;5029207;28;20033;-72
2021/11/14 01:31:37;;;;;;;177.07;53.97;;;4.10;99.90;;;;;;5027243;28;20025;-72
2021/11/14 01:34:03;;;;;;;168.55;56.17;;;4.10;99.90;;;;;;5030963;28;20371;-72
2021/11/14 01:36:34;;;;;;;224.00;59.33;;;4.10;99.90;;;;;;5029827;28;20029;-72
2021/11/14 01:39:01;;;;;;;199.75;56.35;;;4.10;99.90;;;;;;5028375;28;20405;-72
2021/11/14 01:41:27;;;;;;;187.73;56.13;;;4.10;99.90;;;;;;5028748;28;20034;-72
2021/11/14 01:43:53;;;;;;;210.77;55.50;;;4.00;99.90;;;;;;5042087;28;20382;-72
2021/11/14 01:46:20;;;;;;;222.73;56.38;;;4.10;99.90;;;;;;5027311;28;20041;-72
2021/11/14 01:48:46;;;;;;;134.43;54.30;;;4.10;99.90;;;;;;5029953;28;20032;-72
2021/11/14 01:51:12;;;;;;;169.63;55.42;;;4.20;99.90;;;;;;5028196;28;20039;-73
2021/11/14 01:53:39;;;;;;;153.75;55.90;;;4.20;99.90;;;;;;5028691;28;20022;-72
2021/11/14 01:56:07;;;;;;;210.48;57.75;;;4.20;99.90;;;;;;5027961;28;20063;-73
2021/11/14 01:58:33;;;;;;;154.35;54.25;;;4.30;99.90;;;;;;5028282;28;20032;-72
2021/11/14 02:01:16;;;;;;;161.60;52.88;;;4.30;99.90;;;;;;5028571;28;20454;-72
2021/11/14 02:03:45;;;;;;;226.82;57.28;;;4.30;99.90;;;;;;5027778;28;20124;-72
2021/11/14 02:06:11;;;;;;;132.65;50.17;;;4.30;99.90;;;;;;5026378;28;20509;-72
2021/11/14 02:08:39;;;;;;;117.50;51.90;;;4.30;99.90;;;;;;5026889;28;20043;-72
2021/11/14 02:11:06;;;;;;;163.32;52.08;;;4.30;99.90;;;;;;5026682;28;20037;-72
2021/11/14 02:13:31;;;;;;;134.90;50.85;;;4.40;99.90;;;;;;5029545;28;20018;-72
2021/11/14 02:15:58;;;;;;;293.33;57.17;;;4.40;99.90;;;;;;5029047;28;20068;-72
2021/11/14 02:18:24;;;;;;;131.13;51.97;;;4.40;99.90;;;;;;5028109;28;20056;-72
2021/11/14 02:20:51;;;;;;;197.02;54.08;;;4.30;99.90;;;;;;5029561;28;20052;-72
2021/11/14 02:23:19;;;;;;;138.13;54.47;;;4.30;99.90;;;;;;5024921;28;20025;-72
2021/11/14 02:25:48;;;;;;;157.00;52.15;;;4.30;99.90;;;;;;5027192;28;20022;-73
2021/11/14 02:28:16;;;;;;;105.68;51.80;;;4.40;99.90;;;;;;5028698;28;20087;-72
2021/11/14 02:30:43;;;;;;;109.13;50.33;;;4.40;99.90;;;;;;5026852;28;20029;-72
2021/11/14 02:33:09;;;;;;;103.05;50.00;;;4.40;99.90;;;;;;5030333;28;20509;-73
2021/11/14 02:35:36;;;;;;;103.07;48.15;;;4.40;99.90;;;;;;5025986;28;20065;-73
2021/11/14 02:38:02;;;;;;;89.68;46.97;;;4.50;99.90;;;;;;5024020;28;20029;-72
2021/11/14 02:40:29;;;;;;;108.95;51.60;;;4.50;99.90;;;;;;5027196;28;20406;-73
2021/11/14 02:42:55;;;;;;;99.85;50.20;;;4.50;99.90;;;;;;5018632;28;20038;-73
2021/11/14 02:45:24;;;;;;;97.75;49.78;;;4.50;99.90;;;;;;5025375;28;20064;-72
2021/11/14 02:47:51;;;;;;;94.68;49.05;;;4.60;99.90;;;;;;5027247;28;20120;-72
2021/11/14 02:50:17;;;;;;;112.47;51.15;;;4.50;99.90;;;;;;5026735;28;20387;-72
2021/11/14 02:52:43;;;;;;;109.75;49.72;;;4.60;99.90;;;;;;5028900;28;20479;-72
2021/11/14 02:55:13;;;;;;;100.95;50.60;;;4.60;99.90;;;;;;5031102;28;20033;-72
2021/11/14 02:57:39;;;;;;;101.90;48.03;;;4.60;99.90;;;;;;5025656;28;20071;-72
2021/11/14 03:00:10;;;;;;;99.63;50.40;;;4.60;99.90;;;;;;5029100;28;20235;-72
2021/11/14 03:02:35;;;;;;;97.93;49.97;;;4.60;99.90;;;;;;5026226;28;20029;-72
2021/11/14 03:05:07;;;;;;;94.68;49.20;;;4.70;99.90;;;;;;5040833;28;20560;-72
2021/11/14 03:07:33;;;;;;;97.05;48.35;;;4.70;99.90;;;;;;5022671;28;20536;-72
2021/11/14 03:09:58;;;;;;;92.97;48.92;;;4.70;99.90;;;;;;5017676;28;20026;-72
2021/11/14 03:12:24;;;;;;;111.15;51.15;;;4.70;99.90;;;;;;5025313;28;20049;-72
2021/11/14 03:14:50;;;;;;;101.60;51.50;;;4.70;99.90;;;;;;5023594;28;20087;-72
2021/11/14 03:17:15;;;;;;;103.28;53.17;;;4.70;99.90;;;;;;5027724;28;20038;-73
2021/11/14 03:19:41;;;;;;;99.30;51.42;;;4.70;99.90;;;;;;5028019;28;20375;-73
2021/11/14 03:22:08;;;;;;;100.32;51.88;;;4.70;99.90;;;;;;5020208;28;20018;-73
2021/11/14 03:24:34;;;;;;;109.72;54.25;;;4.70;99.90;;;;;;5030081;28;20514;-72
2021/11/14 03:26:59;;;;;;;90.47;50.45;;;4.70;99.90;;;;;;5027956;28;20053;-72
2021/11/14 03:29:25;;;;;;;91.28;49.05;;;4.70;99.90;;;;;;5025878;28;20402;-72
2021/11/14 03:31:51;;;;;;;97.13;50.30;;;4.80;99.90;;;;;;5015328;28;20030;-72
2021/11/14 03:34:16;;;;;;;99.78;53.22;;;4.80;99.90;;;;;;5027243;28;20021;-72
2021/11/14 03:36:42;;;;;;;100.10;49.47;;;4.70;99.90;;;;;;5028242;28;20037;-73
2021/11/14 03:39:08;;;;;;;97.55;49.05;;;4.70;99.90;;;;;;5027034;28;20132;-73
2021/11/14 03:41:39;;;;;;;96.97;53.28;;;4.70;99.90;;;;;;5025473;28;20116;-73
2021/11/14 03:44:06;;;;;;;102.07;53.97;;;4.70;99.90;;;;;;5028092;28;20420;-73
2021/11/14 03:46:32;;;;;;;96.50;51.30;;;4.80;99.90;;;;;;5021540;28;20491;-73
2021/11/14 03:48:58;;;;;;;99.55;50.72;;;4.80;99.90;;;;;;5031867;28;20048;-73
2021/11/14 03:51:26;;;;;;;90.25;49.97;;;4.90;99.90;;;;;;5024106;28;20442;-73
2021/11/14 03:53:53;;;;;;;92.45;49.22;;;4.90;99.90;;;;;;5027659;28;20068;-73
2021/11/14 03:56:19;;;;;;;88.50;49.97;;;4.90;99.90;;;;;;5028355;28;20051;-73
2021/11/14 03:58:46;;;;;;;90.35;48.95;;;4.90;99.90;;;;;;5013733;28;20026;-73
2021/11/14 04:01:16;;;;;;;108.63;52.83;;;4.90;99.90;;;;;;5030183;28;20053;-72
2021/11/14 04:03:42;;;;;;;107.00;53.83;;;4.90;99.90;;;;;;5027115;28;20030;-73
2021/11/14 04:06:08;;;;;;;98.82;52.65;;;4.90;99.90;;;;;;5026313;28;20029;-72
2021/11/14 04:08:35;;;;;;;98.53;52.22;;;4.90;99.90;;;;;;5024521;28;20566;-73
2021/11/14 04:11:02;;;;;;;103.80;54.42;;;4.90;99.90;;;;;;5016129;28;20025;-73
2021/11/14 04:13:30;;;;;;;101.03;53.03;;;4.90;99.90;;;;;;5013254;28;20431;-73
2021/11/14 04:15:58;;;;;;;102.20;51.95;;;4.90;99.90;;;;;;5030306;28;20025;-72
2021/11/14 04:18:24;;;;;;;103.88;53.80;;;4.90;99.90;;;;;;5027409;28;20029;-73
2021/11/14 04:20:50;;;;;;;108.93;53.05;;;4.90;99.90;;;;;;5025338;28;20040;-73
2021/11/14 04:23:17;;;;;;;105.15;55.47;;;4.90;99.90;;;;;;5026813;28;20033;-73
2021/11/14 04:25:44;;;;;;;114.40;54.58;;;5.00;99.90;;;;;;5013685;28;20085;-73
2021/11/14 04:28:12;;;;;;;113.32;56.40;;;4.90;99.90;;;;;;5020513;28;20032;-73
2021/11/14 04:30:40;;;;;;;106.95;53.22;;;5.00;99.90;;;;;;5026638;28;20018;-73
2021/11/14 04:33:06;;;;;;;113.70;54.20;;;5.00;99.90;;;;;;5019948;28;20505;-73
2021/11/14 04:35:32;;;;;;;107.10;54.22;;;5.00;99.90;;;;;;5017245;28;20026;-73
2021/11/14 04:37:59;;;;;;;109.18;55.50;;;5.00;99.90;;;;;;5027383;28;20094;-73
2021/11/14 04:40:26;;;;;;;106.63;54.30;;;5.00;99.90;;;;;;5013035;28;20400;-73
2021/11/14 04:42:52;;;;;;;105.22;55.58;;;5.00;99.90;;;;;;5031010;28;20057;-73
2021/11/14 04:45:19;;;;;;;111.43;53.70;;;5.10;99.90;;;;;;5019659;28;20045;-73
2021/11/14 04:47:44;;;;;;;125.45;57.10;;;5.00;99.90;;;;;;5022401;28;20018;-73
2021/11/14 04:50:13;;;;;;;117.35;59.33;;;5.10;99.90;;;;;;5016735;28;20021;-73
2021/11/14 04:52:39;;;;;;;162.77;61.13;;;5.10;99.90;;;;;;5012859;28;20025;-74
2021/11/14 04:55:06;;;;;;;173.05;60.53;;;5.00;99.90;;;;;;5028218;28;20025;-73
2021/11/14 04:57:32;;;;;;;118.95;55.95;;;5.00;99.90;;;;;;5022216;28;20028;-73
2021/11/14 04:59:57;;;;;;;121.22;59.05;;;5.00;99.90;;;;;;5024662;28;20037;-73
2021/11/14 05:02:23;;;;;;;108.60;54.58;;;4.90;99.90;;;;;;5025471;28;20033;-73
2021/11/14 05:04:49;;;;;;;112.70;54.38;;;4.90;99.90;;;;;;5030787;28;20018;-73
2021/11/14 05:07:15;;;;;;;153.43;59.35;;;4.90;99.90;;;;;;5032683;28;20030;-73
2021/11/14 05:09:40;;;;;;;131.57;57.10;;;4.90;99.90;;;;;;5022983;28;20033;-73
2021/11/14 05:12:07;;;;;;;115.80;56.47;;;5.00;99.90;;;;;;5024577;28;20034;-73
2021/11/14 05:14:32;;;;;;;128.00;57.15;;;5.00;99.90;;;;;;5027997;28;20022;-73
2021/11/14 05:16:58;;;;;;;126.07;56.63;;;5.00;99.90;;;;;;5029849;28;20433;-72
2021/11/14 05:19:24;;;;;;;129.25;56.47;;;4.90;99.90;;;;;;5016771;28;20097;-73
2021/11/14 05:21:50;;;;;;;114.82;54.50;;;4.80;99.90;;;;;;5019830;28;20057;-73
2021/11/14 05:24:16;;;;;;;107.47;55.63;;;4.80;99.90;;;;;;5026215;28;20061;-73
2021/11/14 05:26:41;;;;;;;106.40;54.15;;;4.80;99.90;;;;;;5031418;28;20446;-73
2021/11/14 05:29:07;;;;;;;108.22;54.13;;;4.80;99.90;;;;;;5030853;28;20083;-73
2021/11/14 05:31:33;;;;;;;112.57;53.78;;;4.80;99.90;;;;;;5030247;28;20022;-73
2021/11/14 05:33:59;;;;;;;106.78;52.60;;;4.90;99.90;;;;;;5032793;28;20073;-73
2021/11/14 05:36:24;;;;;;;105.10;54.97;;;4.90;99.90;;;;;;5023612;28;20071;-73
2021/11/14 05:38:52;;;;;;;106.00;53.47;;;5.00;99.90;;;;;;5031805;28;20029;-73
2021/11/14 05:41:18;;;;;;;98.25;50.72;;;5.10;99.90;;;;;;5029285;28;20033;-73
2021/11/14 05:43:43;;;;;;;97.63;51.90;;;5.10;99.90;;;;;;5025737;28;20479;-73
2021/11/14 05:46:09;;;;;;;95.93;51.42;;;5.10;99.90;;;;;;5028237;28;20070;-73
2021/11/14 05:48:35;;;;;;;87.55;47.20;;;5.20;99.90;;;;;;5022034;28;20407;-73
2021/11/14 05:51:01;;;;;;;95.45;48.28;;;5.30;99.90;;;;;;5018980;28;20113;-73
2021/11/14 05:53:27;;;;;;;88.03;48.45;;;5.30;99.90;;;;;;5020797;28;20021;-72
2021/11/14 05:55:53;;;;;;;96.55;49.45;;;5.30;99.90;;;;;;5025167;28;20052;-72
2021/11/14 05:58:29;;;;;;;82.05;45.65;;;5.30;99.90;;;;;;5032302;28;20546;-73
2021/11/14 06:03:38;;;;;;;89.00;47.38;;;5.30;99.90;;;;;;5029594;28;20040;-73
2021/11/14 06:06:05;;;;;;;84.00;45.92;;;5.30;99.90;;;;;;5031684;28;20431;-73
2021/11/14 06:08:31;;;;;;;81.45;45.53;;;5.30;99.90;;;;;;5030383;28;20024;-73
2021/11/14 06:10:58;;;;;;;85.03;46.50;;;5.30;99.90;;;;;;5030212;28;20030;-73
2021/11/14 06:13:28;;;;;;;88.82;46.88;;;5.30;99.90;;;;;;5015912;28;20041;-73
2021/11/14 06:15:54;;;;;;;88.72;46.58;;;5.30;99.90;;;;;;5029299;28;20116;-73
2021/11/14 06:18:20;;;;;;;83.82;46.45;;;5.30;99.90;;;;;;5027383;28;20040;-73
2021/11/14 06:20:47;;;;;;;81.18;45.03;;;5.30;99.90;;;;;;5027189;28;20083;-73
2021/11/14 06:23:14;;;;;;;82.93;44.22;;;5.30;99.90;;;;;;5029500;28;20025;-73
2021/11/14 06:25:40;;;;;;;82.10;43.80;;;5.30;99.90;;;;;;5029239;28;20040;-73
2021/11/14 06:28:05;;;;;;;83.82;45.13;;;5.30;99.90;;;;;;5027428;28;20033;-73
2021/11/14 06:30:32;;;;;;;81.10;43.00;;;5.30;99.90;;;;;;5027535;28;20041;-74
2021/11/14 06:32:58;;;;;;;76.43;43.10;;;5.30;99.90;;;;;;5029329;28;20084;-73
2021/11/14 06:35:24;;;;;;;77.97;42.17;;;5.30;99.90;;;;;;5027405;28;20029;-73
2021/11/14 06:37:51;;;;;;;79.20;43.47;;;5.30;99.90;;;;;;5031109;28;20029;-73
2021/11/14 06:40:16;;;;;;;82.18;42.58;;;5.30;99.90;;;;;;5031598;28;20041;-73
2021/11/14 06:42:42;;;;;;;75.53;43.13;;;5.30;99.90;;;;;;5031879;28;20032;-73
2021/11/14 06:45:09;;;;;;;84.18;45.70;;;5.30;99.90;;;;;;5023424;28;20033;-73
2021/11/14 06:47:35;;;;;;;81.85;42.97;;;5.30;99.90;;;;;;5025349;28;20121;-73
2021/11/14 06:50:01;;;;;;;79.00;42.70;;;5.20;99.90;;;;;;5017372;28;20466;-73
2021/11/14 06:52:27;;;;;;;77.97;42.63;;;5.20;99.90;;;;;;5030684;28;20025;-73
2021/11/14 06:54:53;;;;;;;83.90;42.38;;;5.20;99.90;;;;;;5031103;28;20029;-73
2021/11/14 06:57:20;;;;;;;80.05;43.50;;;5.20;99.90;;;;;;5024540;28;20029;-73
2021/11/14 06:59:46;;;;;;;77.93;43.08;;;5.20;99.90;;;;;;5025879;28;20064;-72
2021/11/14 07:02:12;;;;;;;81.95;43.55;;;5.20;99.90;;;;;;5029172;28;20021;-72
2021/11/14 07:04:38;;;;;;;78.95;43.15;;;5.20;99.90;;;;;;5028159;28;20021;-72
2021/11/14 07:07:05;;;;;;;75.00;42.55;;;5.20;99.90;;;;;;5032377;28;20394;-72
2021/11/14 07:09:31;;;;;;;72.30;41.80;;;5.30;99.90;;;;;;5022288;28;20460;-73
2021/11/14 07:11:57;;;;;;;82.10;44.17;;;5.30;99.90;;;;;;5021794;28;20094;-73
2021/11/14 07:14:23;;;;;;;75.80;41.92;;;5.40;99.90;;;;;;5017849;28;20022;-73
2021/11/14 07:16:50;;;;;;;79.97;42.78;;;5.40;99.90;;;;;;5030508;28;20501;-73
2021/11/14 07:19:16;;;;;;;74.18;44.20;;;5.40;99.90;;;;;;5015369;28;20453;-73
2021/11/14 07:21:43;;;;;;;75.38;40.30;;;5.40;99.90;;;;;;5029345;28;20078;-72
2021/11/14 07:24:08;;;;;;;75.45;41.53;;;5.40;99.90;;;;;;5029670;28;20482;-72
2021/11/14 07:26:34;;;;;;;73.68;39.95;;;5.50;99.90;;;;;;5024891;28;20028;-72
2021/11/14 07:29:00;;;;;;;76.22;41.95;;;5.50;99.90;;;;;;5019020;28;20430;-73
2021/11/14 07:31:25;;;;;;;68.65;41.60;;;5.50;99.90;;;;;;5029262;28;20398;-73
2021/11/14 07:33:51;;;;;;;77.68;42.22;;;5.50;99.90;;;;;;5016825;28;20026;-73
2021/11/14 07:36:17;;;;;;;83.03;43.72;;;5.50;99.90;;;;;;5009372;28;20096;-72
2021/11/14 07:38:42;;;;;;;77.13;41.65;;;5.60;99.90;;;;;;5015566;28;20471;-72
2021/11/14 07:41:08;;;;;;;75.32;40.58;;;5.60;99.90;;;;;;5021708;28;20033;-72
2021/11/14 07:43:35;;;;;;;72.60;40.55;;;5.70;99.90;;;;;;5017344;28;20037;-72
2021/11/14 07:46:00;;;;;;;74.93;41.00;;;5.70;99.90;;;;;;5029088;28;20021;-73
2021/11/14 07:48:26;;;;;;;73.63;41.22;;;5.70;99.90;;;;;;5019230;28;20505;-73
2021/11/14 07:50:54;;;;;;;80.63;42.58;;;5.70;99.90;;;;;;5022343;28;20026;-73
2021/11/14 07:53:21;;;;;;;79.30;42.80;;;5.70;99.90;;;;;;5022558;28;20040;-72
2021/11/14 07:55:46;;;;;;;77.15;41.08;;;5.70;99.90;;;;;;5023502;28;20120;-73
2021/11/14 07:58:13;;;;;;;73.07;41.08;;;5.70;99.90;;;;;;5024510;28;20113;-73
2021/11/14 08:00:39;;;;;;;81.13;42.15;;;5.70;99.90;;;;;;5023635;28;20053;-72
2021/11/14 08:03:05;;;;;;;78.05;40.65;;;5.70;99.90;;;;;;5020786;28;20025;-72
2021/11/14 08:05:31;;;;;;;76.60;42.20;;;5.70;99.90;;;;;;5016166;28;20036;-73
2021/11/14 08:07:57;;;;;;;79.38;42.53;;;5.60;99.90;;;;;;5021657;28;20026;-73
2021/11/14 08:10:24;;;;;;;81.40;44.67;;;5.60;99.90;;;;;;5017136;28;20136;-73
2021/11/14 08:12:50;;;;;;;79.97;39.22;;;5.60;99.90;;;;;;5011368;28;20875;-72
2021/11/14 08:15:17;;;;;;;83.97;41.75;;;5.60;99.90;;;;;;5010409;28;20092;-73
2021/11/14 08:17:44;;;;;;;77.88;43.10;;;5.60;99.90;;;;;;5008279;28;20386;-73
2021/11/14 08:20:10;;;;;;;78.22;40.70;;;5.60;99.90;;;;;;5026049;28;20041;-73
2021/11/14 08:22:36;;;;;;;77.55;42.70;;;5.70;99.90;;;;;;5013839;28;20026;-72
2021/11/14 08:25:03;;;;;;;78.28;44.20;;;5.60;99.90;;;;;;5027314;28;20022;-72
2021/11/14 08:27:31;;;;;;;74.63;41.88;;;5.70;99.90;;;;;;5016093;28;20822;-73
2021/11/14 08:29:58;;;;;;;79.60;44.63;;;5.80;99.90;;;;;;5021170;28;20033;-73
2021/11/14 08:32:24;;;;;;;84.07;43.05;;;5.80;99.90;;;;;;5012519;28;20041;-73
2021/11/14 08:34:50;;;;;;;87.60;47.30;;;5.80;99.90;;;;;;5027177;28;20131;-73
2021/11/14 08:37:15;;;;;;;82.75;44.95;;;5.80;99.90;;;;;;5021482;28;20484;-73
2021/11/14 08:39:42;;;;;;;87.65;43.47;;;5.90;99.90;;;;;;5020551;28;20487;-73
2021/11/14 08:42:08;;;;;;;83.05;45.03;;;5.90;99.90;;;;;;5023963;28;20370;-72
2021/11/14 08:44:35;;;;;;;88.32;44.75;;;5.80;99.90;;;;;;5029134;28;20034;-72
2021/11/14 08:47:00;;;;;;;91.53;45.63;;;5.90;99.90;;;;;;5033426;28;20096;-74
2021/11/14 08:49:26;;;;;;;92.68;45.15;;;5.90;99.90;;;;;;5016653;28;20068;-73
2021/11/14 08:51:52;;;;;;;86.78;45.80;;;5.80;99.90;;;;;;5024256;28;20030;-73
2021/11/14 08:54:18;;;;;;;92.10;45.97;;;5.90;99.90;;;;;;5031578;28;20387;-73
2021/11/14 08:56:44;;;;;;;84.35;44.33;;;5.90;99.90;;;;;;5026023;28;20049;-73
2021/11/14 08:59:09;;;;;;;96.03;47.60;;;5.90;99.90;;;;;;5028705;28;20089;-73
2021/11/14 09:01:38;;;;;;;100.13;49.30;;;5.80;99.90;;;;;;5025422;28;20544;-73
2021/11/14 09:04:07;;;;;;;107.70;48.85;;;5.80;99.90;;;;;;5030851;28;20029;-73
2021/11/14 09:06:33;;;;;;;91.55;48.42;;;5.70;99.90;;;;;;5024801;28;20433;-73
2021/11/14 09:08:59;;;;;;;100.18;54.05;;;5.70;99.90;;;;;;5024085;28;20105;-73
2021/11/14 09:11:25;;;;;;;93.20;47.05;;;5.70;99.90;;;;;;5018277;28;20129;-73
2021/11/14 09:13:51;;;;;;;95.18;49.10;;;5.60;99.90;;;;;;5030848;28;20080;-73
2021/11/14 09:16:18;;;;;;;92.35;50.22;;;5.60;99.90;;;;;;5024359;28;20433;-72
2021/11/14 09:18:45;;;;;;;95.38;48.03;;;5.70;99.90;;;;;;5027761;28;20080;-73
2021/11/14 09:21:11;;;;;;;103.38;50.90;;;5.70;99.90;;;;;;5026244;28;20403;-73
2021/11/14 09:23:36;;;;;;;92.43;47.88;;;5.80;99.90;;;;;;5029195;28;20025;-73
2021/11/14 09:26:02;;;;;;;95.63;47.47;;;5.80;99.90;;;;;;5021839;28;20018;-73
2021/11/14 09:28:28;;;;;;;91.60;47.92;;;5.90;99.90;;;;;;5032990;28;20076;-73
2021/11/14 09:30:55;;;;;;;95.30;50.60;;;5.90;99.90;;;;;;5026493;28;20025;-73
2021/11/14 09:33:23;;;;;;;95.03;48.05;;;5.90;99.90;;;;;;5026567;28;20025;-73
2021/11/14 09:35:49;;;;;;;94.53;48.00;;;5.80;99.90;;;;;;5021068;28;20078;-73
2021/11/14 09:38:15;;;;;;;96.68;49.17;;;5.80;99.90;;;;;;5007784;28;20510;-72
2021/11/14 09:40:41;;;;;;;100.90;48.33;;;5.80;99.90;;;;;;5022233;28;20132;-73
2021/11/14 09:43:07;;;;;;;102.47;49.20;;;5.80;99.90;;;;;;5028680;28;20041;-72
2021/11/14 09:45:34;;;;;;;104.85;51.03;;;5.80;99.90;;;;;;5026528;28;20060;-73
2021/11/14 09:48:00;;;;;;;95.30;49.78;;;5.80;99.90;;;;;;5026532;28;20482;-72
2021/11/14 09:50:29;;;;;;;107.90;53.70;;;5.70;99.90;;;;;;5025150;28;20033;-73
2021/11/14 09:52:56;;;;;;;102.55;52.55;;;5.70;99.90;;;;;;5023650;28;20037;-73
2021/11/14 09:55:24;;;;;;;108.70;55.17;;;5.70;99.90;;;;;;5028447;28;20634;-73
2021/11/14 09:57:50;;;;;;;99.13;49.70;;;5.70;99.90;;;;;;5022233;28;20088;-73
2021/11/14 10:00:19;;;;;;;98.25;50.25;;;5.80;99.90;;;;;;5029241;28;20057;-73
2021/11/14 10:02:46;;;;;;;101.63;52.95;;;5.80;99.90;;;;;;5021031;28;20521;-73
2021/11/14 10:05:14;;;;;;;102.20;52.22;;;5.80;99.90;;;;;;5029090;28;20034;-73
2021/11/14 10:07:41;;;;;;;107.32;55.15;;;5.80;99.90;;;;;;5022414;28;20033;-73
2021/11/14 10:10:11;;;;;;;105.00;51.50;;;5.70;99.90;;;;;;5031691;28;20100;-73
2021/11/14 10:12:38;;;;;;;117.00;59.05;;;5.70;99.90;;;;;;5022818;28;20030;-73
2021/11/14 10:15:17;;;;;;;89.50;47.85;;;5.70;99.90;;;;;;5029521;28;20411;-73
2021/11/14 10:17:48;;;;;;;93.72;48.15;;;5.70;99.90;;;;;;5022775;28;20022;-73
2021/11/14 10:20:23;;;;;;;100.90;49.65;;;5.70;99.90;;;;;;5028460;28;20037;-73
2021/11/14 10:22:57;;;;;;;101.53;50.42;;;5.70;99.90;;;;;;5020946;28;20442;-73
2021/11/14 10:25:23;;;;;;;102.65;52.25;;;5.60;99.90;;;;;;5029835;28;20106;-73
2021/11/14 10:27:56;;;;;;;102.88;51.17;;;5.70;99.90;;;;;;5021961;28;20030;-72
2021/11/14 10:30:25;;;;;;;105.28;53.97;;;5.70;99.90;;;;;;5028665;28;20037;-72
2021/11/14 10:32:56;;;;;;;95.22;48.60;;;5.80;99.90;;;;;;5022886;28;20506;-74
2021/11/14 10:35:23;;;;;;;104.18;51.25;;;5.80;99.90;;;;;;5025738;28;20108;-73
2021/11/14 10:37:49;;;;;;;97.03;50.78;;;5.90;99.90;;;;;;5018813;28;20021;-74
2021/11/14 10:40:26;;;;;;;101.47;50.97;;;5.90;99.90;;;;;;5020948;28;20319;-73
2021/11/14 10:42:58;;;;;;;93.47;47.35;;;5.90;99.90;;;;;;5030596;28;20022;-74
2021/11/14 10:45:25;;;;;;;100.70;46.80;;;5.90;99.90;;;;;;5021344;28;20120;-74
2021/11/14 10:48:05;;;;;;;106.10;51.72;;;5.90;99.90;;;;;;5020247;28;20038;-74
2021/11/14 10:50:35;;;;;;;100.80;51.45;;;5.80;99.90;;;;;;5019235;28;20084;-74
2021/11/14 10:53:05;;;;;;;104.93;52.40;;;5.80;99.90;;;;;;5022402;28;20037;-73
2021/11/14 10:55:36;;;;;;;105.53;53.97;;;5.90;99.90;;;;;;5026644;28;20112;-73
2021/11/14 10:58:03;;;;;;;101.70;51.38;;;6.00;99.90;;;;;;5015714;28;20063;-74
2021/11/14 11:00:29;;;;;;;102.45;50.97;;;6.10;99.90;;;;;;5021308;28;20071;-72
2021/11/14 11:02:55;;;;;;;94.70;50.38;;;6.20;99.90;;;;;;5016942;28;20042;-73
2021/11/14 11:05:24;;;;;;;104.85;53.58;;;6.20;99.90;;;;;;5025938;28;20490;-72
2021/11/14 11:07:56;;;;;;;99.82;51.03;;;6.30;99.90;;;;;;5020251;28;20087;-74
2021/11/14 11:10:34;;;;;;;93.13;51.00;;;6.20;99.90;;;;;;5026687;28;20036;-74
2021/11/14 11:13:06;;;;;;;93.75;48.75;;;6.20;99.90;;;;;;5016631;28;20124;-74
2021/11/14 11:15:45;;;;;;;92.25;49.58;;;6.20;99.90;;;;;;5023311;28;20112;-74
2021/11/14 11:18:14;;;;;;;95.28;47.88;;;6.10;99.90;;;;;;5014383;28;20033;-74
2021/11/14 11:20:41;;;;;;;88.03;47.80;;;6.10;99.90;;;;;;5028090;28;20037;-72
2021/11/14 11:23:12;;;;;;;92.43;47.63;;;6.10;99.90;;;;;;5018931;28;20568;-77
2021/11/14 11:25:47;;;;;;;92.72;46.03;;;6.10;99.90;;;;;;5024577;28;20378;-73
2021/11/14 11:28:17;;;;;;;95.43;48.88;;;6.10;99.90;;;;;;5021678;28;20072;-74
2021/11/14 11:30:47;;;;;;;95.57;49.97;;;6.10;99.90;;;;;;5026906;28;20120;-74
2021/11/14 11:33:16;;;;;;;99.78;49.63;;;6.10;99.90;;;;;;5023735;28;20025;-74
2021/11/14 11:35:42;;;;;;;95.72;50.20;;;6.20;99.90;;;;;;5022808;28;21438;-75
2021/11/14 11:38:07;;;;;;;98.90;49.92;;;6.20;99.90;;;;;;5022822;28;20064;-74
2021/11/14 11:40:34;;;;;;;96.88;48.45;;;6.20;99.90;;;;;;5024948;28;20064;-73
2021/11/14 11:43:00;;;;;;;100.53;49.08;;;6.20;99.90;;;;;;5026711;28;20083;-74
2021/11/14 11:45:30;;;;;;;90.95;47.88;;;6.20;99.90;;;;;;5021375;28;20057;-73
2021/11/14 11:47:58;;;;;;;96.97;49.15;;;6.20;99.90;;;;;;5023952;28;20057;-74
2021/11/14 11:50:30;;;;;;;95.53;48.88;;;6.20;99.90;;;;;;5019101;28;20078;-75
2021/11/14 11:52:56;;;;;;;96.10;48.60;;;6.20;99.90;;;;;;5025675;28;20056;-74
2021/11/14 11:55:25;;;;;;;94.80;49.65;;;6.10;99.90;;;;;;5020981;28;20525;-74
2021/11/14 11:58:06;;;;;;;98.30;49.05;;;6.10;99.90;;;;;;5028432;28;20486;-73
2021/11/14 12:00:32;;;;;;;96.03;48.42;;;6.10;99.90;;;;;;5018742;28;20410;-74
2021/11/14 12:02:58;;;;;;;96.70;49.60;;;6.20;99.90;;;;;;5026440;28;20029;-74
2021/11/14 12:05:25;;;;;;;93.88;49.38;;;6.20;99.90;;;;;;5026276;28;20040;-76
2021/11/14 12:07:54;;;;;;;91.70;48.90;;;6.20;99.90;;;;;;5026113;28;20029;-74
2021/11/14 12:10:23;;;;;;;90.47;46.72;;;6.30;99.90;;;;;;5027539;28;20104;-75
2021/11/14 12:13:03;;;;;;;90.03;46.65;;;6.20;99.90;;;;;;5029196;28;20034;-74
2021/11/14 12:15:37;;;;;;;91.22;48.75;;;6.20;99.90;;;;;;5026835;28;20038;-74
2021/11/14 12:18:05;;;;;;;97.15;49.67;;;6.30;99.90;;;;;;5022644;28;20171;-74
2021/11/14 12:20:42;;;;;;;87.90;46.55;;;6.20;99.90;;;;;;5026424;28;20398;-74
2021/11/14 12:23:37;;;;;;;97.13;46.83;;;6.20;99.90;;;;;;5026922;28;20021;-74
2021/11/14 12:26:08;;;;;;;89.03;45.95;;;6.10;99.90;;;;;;5027313;28;20452;-74
2021/11/14 12:28:34;;;;;;;97.07;47.60;;;6.10;99.90;;;;;;5028331;28;20029;-75
2021/11/14 12:31:06;;;;;;;95.95;47.08;;;6.10;99.90;;;;;;5027629;28;20025;-74
2021/11/14 12:33:36;;;;;;;96.78;46.83;;;6.10;99.90;;;;;;5026799;28;20064;-73
2021/11/14 12:36:09;;;;;;;88.50;46.55;;;6.20;99.90;;;;;;5026247;28;20581;-74